Time;durP1;ratioP1;P1;durP2;ratioP2;P2;SDS_P1;SDS_P2;PMS_P1;PMS_P2;Temp;Humidity;BMP_temperature;BMP_pressure;BME280_temperature;BME280_humidity;BME280_pressure;Samples;Min_cycle;Max_cycle;Signal;HPM_P1;HPM_P2
2020/12/11 00:01:37;;;;;;;36.05;12.90;;;2.20;99.90;;;;;;5046070;28;20105;-80
2020/12/11 00:04:03;;;;;;;37.03;12.75;;;2.20;99.90;;;;;;5046727;28;20516;-80
2020/12/11 00:06:28;;;;;;;31.95;12.98;;;2.20;99.90;;;;;;5047562;28;20033;-80
2020/12/11 00:08:54;;;;;;;35.40;13.40;;;2.30;99.90;;;;;;5051111;28;20101;-80
2020/12/11 00:11:30;;;;;;;32.42;12.70;;;2.30;99.90;;;;;;5050992;28;20033;-79
2020/12/11 00:13:56;;;;;;;36.67;13.05;;;2.30;99.90;;;;;;5050549;28;20033;-78
2020/12/11 00:16:22;;;;;;;33.58;14.52;;;2.20;99.90;;;;;;5050199;28;20426;-78
2020/12/11 00:18:48;;;;;;;30.90;12.93;;;2.20;99.90;;;;;;5050533;28;20025;-78
2020/12/11 00:21:13;;;;;;;42.88;13.27;;;2.20;99.90;;;;;;5047145;28;20032;-78
2020/12/11 00:23:39;;;;;;;32.42;12.15;;;2.20;99.90;;;;;;5049918;28;20116;-78
2020/12/11 00:26:04;;;;;;;38.55;12.55;;;2.20;99.90;;;;;;5051244;28;20021;-81
2020/12/11 00:28:30;;;;;;;41.88;14.18;;;2.20;99.90;;;;;;5049296;28;20032;-81
2020/12/11 00:30:57;;;;;;;42.00;14.23;;;2.20;99.90;;;;;;5050123;28;20609;-80
2020/12/11 00:33:23;;;;;;;45.00;15.38;;;2.20;99.90;;;;;;5050352;28;20083;-80
2020/12/11 00:35:49;;;;;;;44.78;14.40;;;2.20;99.90;;;;;;5043614;28;20491;-80
2020/12/11 00:38:15;;;;;;;40.38;13.95;;;2.20;99.90;;;;;;5047516;28;20111;-81
2020/12/11 00:40:40;;;;;;;38.92;13.98;;;2.20;99.90;;;;;;5050155;28;20125;-78
2020/12/11 00:43:06;;;;;;;33.58;13.30;;;2.20;99.90;;;;;;5049376;28;20029;-81
2020/12/11 00:45:32;;;;;;;41.28;13.85;;;2.20;99.90;;;;;;5049757;28;20029;-80
2020/12/11 00:47:58;;;;;;;33.10;13.25;;;2.10;99.90;;;;;;5040866;28;20036;-80
2020/12/11 00:50:24;;;;;;;42.22;13.45;;;2.10;99.90;;;;;;5057016;28;20029;-80
2020/12/11 00:52:49;;;;;;;40.10;14.30;;;2.20;99.90;;;;;;5055545;28;20036;-80
2020/12/11 00:55:16;;;;;;;47.78;15.10;;;2.20;99.90;;;;;;5050348;28;20029;-81
2020/12/11 00:57:45;;;;;;;44.80;14.32;;;2.20;99.90;;;;;;5049994;28;20100;-81
2020/12/11 01:00:18;;;;;;;41.58;14.55;;;2.10;99.90;;;;;;5045352;28;20510;-80
2020/12/11 01:02:43;;;;;;;51.53;16.20;;;2.10;99.90;;;;;;5047290;28;20565;-81
2020/12/11 01:05:09;;;;;;;46.08;16.27;;;2.10;99.90;;;;;;5046984;28;20749;-81
2020/12/11 01:07:34;;;;;;;44.78;15.50;;;2.10;99.90;;;;;;5049566;28;20029;-80
2020/12/11 01:10:00;;;;;;;45.40;15.85;;;2.10;99.90;;;;;;5050480;28;20383;-80
2020/12/11 01:12:26;;;;;;;49.67;15.57;;;2.20;99.90;;;;;;5049528;28;20120;-80
2020/12/11 01:14:52;;;;;;;46.60;15.25;;;2.20;99.90;;;;;;5048263;28;20040;-80
2020/12/11 01:17:17;;;;;;;48.10;15.73;;;2.20;99.90;;;;;;5049056;28;20413;-81
2020/12/11 01:19:43;;;;;;;48.50;16.13;;;2.30;99.90;;;;;;5049617;28;20024;-81
2020/12/11 01:22:10;;;;;;;47.35;15.05;;;2.30;99.90;;;;;;5049437;28;20103;-81
2020/12/11 01:24:35;;;;;;;53.13;15.38;;;2.20;99.90;;;;;;5049348;28;20065;-78
2020/12/11 01:27:01;;;;;;;50.03;15.65;;;2.30;99.90;;;;;;5048978;28;20079;-78
2020/12/11 01:29:26;;;;;;;47.60;16.35;;;2.30;99.90;;;;;;5049133;28;20033;-80
2020/12/11 01:31:56;;;;;;;46.45;16.13;;;2.20;99.90;;;;;;5047890;28;20129;-81
2020/12/11 01:34:21;;;;;;;42.42;15.32;;;2.20;99.90;;;;;;5048026;28;20033;-80
2020/12/11 01:36:47;;;;;;;45.42;14.98;;;2.20;99.90;;;;;;5048711;28;20116;-80
2020/12/11 01:39:12;;;;;;;45.40;16.23;;;2.20;99.90;;;;;;5049381;28;20482;-80
2020/12/11 01:41:38;;;;;;;42.42;15.00;;;2.10;99.90;;;;;;5049860;28;20148;-80
2020/12/11 01:44:09;;;;;;;44.53;15.93;;;2.20;99.90;;;;;;5046887;28;20056;-80
2020/12/11 01:46:40;;;;;;;49.80;16.08;;;2.20;99.90;;;;;;5044909;28;20059;-81
2020/12/11 01:49:08;;;;;;;47.58;15.63;;;2.20;99.90;;;;;;5046240;28;20033;-78
2020/12/11 01:51:35;;;;;;;55.40;17.02;;;2.20;99.90;;;;;;5047381;28;20120;-78
2020/12/11 01:54:01;;;;;;;50.78;16.33;;;2.20;99.90;;;;;;5045863;28;20032;-79
2020/12/11 01:56:30;;;;;;;47.92;16.58;;;2.20;99.90;;;;;;5048229;28;20172;-78
2020/12/11 01:59:03;;;;;;;46.67;15.75;;;2.30;99.90;;;;;;5045029;28;20025;-78
2020/12/11 02:01:35;;;;;;;47.47;16.08;;;2.30;99.90;;;;;;5046817;28;20115;-78
2020/12/11 02:04:00;;;;;;;;;;;2.20;99.90;;;;;;5045880;28;20049;-78
2020/12/11 02:06:26;;;;;;;40.08;13.15;;;2.20;99.90;;;;;;5046945;28;19966;-81
2020/12/11 02:08:58;;;;;;;39.35;13.75;;;2.30;99.90;;;;;;5046912;28;20036;-80
2020/12/11 02:11:24;;;;;;;45.63;13.82;;;2.30;99.90;;;;;;5046853;28;20040;-80
2020/12/11 02:13:50;;;;;;;44.03;14.48;;;2.30;99.90;;;;;;5046891;28;20041;-80
2020/12/11 02:16:23;;;;;;;41.63;14.00;;;2.30;99.90;;;;;;5046324;28;20036;-81
2020/12/11 02:18:50;;;;;;;42.40;13.52;;;2.30;99.90;;;;;;5046670;28;20021;-81
2020/12/11 02:21:16;;;;;;;36.60;13.77;;;2.30;99.90;;;;;;5047673;28;20025;-81
2020/12/11 02:23:43;;;;;;;42.97;13.80;;;2.20;99.90;;;;;;5046163;28;20148;-81
2020/12/11 02:26:09;;;;;;;39.88;13.38;;;2.10;99.90;;;;;;5047188;28;20032;-81
2020/12/11 02:28:35;;;;;;;35.17;13.32;;;2.20;99.90;;;;;;5046213;28;20029;-80
2020/12/11 02:31:02;;;;;;;40.88;13.95;;;2.30;99.90;;;;;;5045971;28;20033;-80
2020/12/11 02:33:28;;;;;;;46.95;14.60;;;2.30;99.90;;;;;;5045800;28;20029;-81
2020/12/11 02:35:53;;;;;;;42.65;13.85;;;2.30;99.90;;;;;;5045316;28;20028;-81
2020/12/11 02:38:19;;;;;;;39.53;14.43;;;2.30;99.90;;;;;;5046686;28;20530;-81
2020/12/11 02:40:52;;;;;;;47.85;14.55;;;2.20;99.90;;;;;;5045891;28;20418;-81
2020/12/11 02:43:18;;;;;;;47.25;15.23;;;2.10;99.90;;;;;;5045558;28;20029;-80
2020/12/11 02:45:45;;;;;;;50.50;15.00;;;2.10;99.90;;;;;;5046813;28;20060;-81
2020/12/11 02:48:11;;;;;;;45.28;15.45;;;2.20;99.90;;;;;;5045817;28;20031;-81
2020/12/11 02:50:37;;;;;;;43.80;14.73;;;2.10;99.90;;;;;;5045616;28;20033;-81
2020/12/11 02:53:03;;;;;;;44.90;15.13;;;2.10;99.90;;;;;;5046160;28;20025;-81
2020/12/11 02:55:28;;;;;;;53.33;16.83;;;2.10;99.90;;;;;;5046608;28;20050;-81
2020/12/11 02:57:54;;;;;;;46.20;15.30;;;2.10;99.90;;;;;;5044693;28;20074;-81
2020/12/11 03:00:19;;;;;;;50.38;16.75;;;2.10;99.90;;;;;;5046338;28;20017;-81
2020/12/11 03:02:44;;;;;;;47.70;15.60;;;2.00;99.90;;;;;;5045805;28;20094;-80
2020/12/11 03:05:10;;;;;;;50.10;15.75;;;2.00;99.90;;;;;;5046073;28;20663;-81
2020/12/11 03:07:35;;;;;;;52.70;15.90;;;2.00;99.90;;;;;;5046109;28;20025;-81
2020/12/11 03:10:01;;;;;;;48.85;14.98;;;2.00;99.90;;;;;;5044721;28;20423;-81
2020/12/11 03:12:26;;;;;;;46.60;16.65;;;1.90;99.90;;;;;;5044176;28;20040;-81
2020/12/11 03:14:52;;;;;;;48.80;14.93;;;2.00;99.90;;;;;;5045923;28;20479;-81
2020/12/11 03:17:17;;;;;;;46.25;15.30;;;2.00;99.90;;;;;;5045465;28;20379;-80
2020/12/11 03:19:43;;;;;;;43.75;16.13;;;2.00;99.90;;;;;;5046167;28;20052;-80
2020/12/11 03:22:08;;;;;;;44.15;15.43;;;1.90;99.90;;;;;;5045557;28;20162;-81
2020/12/11 03:24:34;;;;;;;43.00;15.93;;;1.90;99.90;;;;;;5045165;28;20041;-81
2020/12/11 03:26:59;;;;;;;46.45;14.40;;;2.00;99.90;;;;;;5045029;28;20101;-81
2020/12/11 03:29:25;;;;;;;43.15;15.13;;;2.10;99.90;;;;;;5045842;28;20033;-81
2020/12/11 03:31:50;;;;;;;48.63;14.80;;;2.10;99.90;;;;;;5044904;28;20683;-81
2020/12/11 03:34:16;;;;;;;43.92;14.93;;;2.00;99.90;;;;;;5044707;28;20025;-81
2020/12/11 03:36:41;;;;;;;42.17;15.40;;;2.10;99.90;;;;;;5045879;28;20156;-81
2020/12/11 03:39:07;;;;;;;51.15;15.95;;;2.00;99.90;;;;;;5045179;28;20020;-80
2020/12/11 03:41:32;;;;;;;44.75;15.65;;;2.00;99.90;;;;;;5048941;28;20387;-81
2020/12/11 03:43:57;;;;;;;44.63;15.05;;;1.90;99.90;;;;;;5049446;28;20029;-81
2020/12/11 03:46:23;;;;;;;51.40;15.73;;;1.90;99.90;;;;;;5049184;28;20043;-81
2020/12/11 03:48:50;;;;;;;47.22;15.43;;;1.90;99.90;;;;;;5049864;28;20021;-81
2020/12/11 03:51:18;;;;;;;52.60;16.35;;;1.90;99.90;;;;;;5050113;28;20067;-81
2020/12/11 03:53:44;;;;;;;46.20;15.57;;;1.80;99.90;;;;;;5051614;28;20056;-81
2020/12/11 03:56:12;;;;;;;43.90;15.13;;;2.00;99.90;;;;;;5050375;28;20033;-81
2020/12/11 03:58:38;;;;;;;42.80;15.45;;;1.90;99.90;;;;;;5051538;28;20048;-81
2020/12/11 04:01:04;;;;;;;52.15;16.17;;;1.80;99.90;;;;;;5050435;28;20471;-81
2020/12/11 04:03:29;;;;;;;47.45;16.85;;;1.80;99.90;;;;;;5051043;28;20095;-81
2020/12/11 04:05:54;;;;;;;54.80;17.70;;;1.80;99.90;;;;;;5051304;28;20049;-81
2020/12/11 04:08:20;;;;;;;49.53;16.40;;;1.90;99.90;;;;;;5050905;28;20029;-81
2020/12/11 04:10:45;;;;;;;59.75;18.65;;;1.90;99.90;;;;;;5050100;28;20033;-81
2020/12/11 04:13:11;;;;;;;57.05;17.35;;;1.90;99.90;;;;;;5049556;28;20044;-81
2020/12/11 04:15:36;;;;;;;49.30;16.92;;;1.90;99.90;;;;;;5050525;28;20625;-81
2020/12/11 04:18:02;;;;;;;56.30;16.63;;;1.90;99.90;;;;;;5050278;28;20136;-81
2020/12/11 04:20:27;;;;;;;49.33;16.50;;;1.90;99.90;;;;;;5050737;28;20021;-81
2020/12/11 04:22:53;;;;;;;56.35;17.23;;;1.80;99.90;;;;;;5049760;28;20660;-81
2020/12/11 04:25:18;;;;;;;47.67;16.70;;;1.80;99.90;;;;;;5050617;28;20428;-80
2020/12/11 04:27:43;;;;;;;57.95;17.38;;;1.80;99.90;;;;;;5050307;28;20025;-81
2020/12/11 04:30:09;;;;;;;54.95;17.60;;;1.90;99.90;;;;;;5049262;28;20028;-81
2020/12/11 04:32:34;;;;;;;59.15;17.75;;;1.90;99.90;;;;;;5050854;28;20036;-81
2020/12/11 04:35:00;;;;;;;54.72;16.42;;;1.90;99.90;;;;;;5049633;28;20061;-81
2020/12/11 04:37:25;;;;;;;54.15;17.20;;;1.90;99.90;;;;;;5050548;28;20048;-81
2020/12/11 04:39:51;;;;;;;57.45;17.83;;;1.90;99.90;;;;;;5047002;28;20032;-81
2020/12/11 04:42:18;;;;;;;55.40;17.10;;;1.80;99.90;;;;;;5050069;28;20021;-81
2020/12/11 04:44:44;;;;;;;46.03;16.90;;;1.90;99.90;;;;;;5047170;28;20063;-82
2020/12/11 04:47:10;;;;;;;57.42;18.15;;;1.90;99.90;;;;;;5049645;28;20071;-80
2020/12/11 04:49:36;;;;;;;52.90;17.75;;;1.90;99.90;;;;;;5041000;28;20503;-82
2020/12/11 04:52:05;;;;;;;45.00;15.73;;;1.90;99.90;;;;;;5044501;28;20072;-81
2020/12/11 04:54:36;;;;;;;52.33;17.27;;;1.80;99.90;;;;;;5045781;28;20044;-82
2020/12/11 04:57:03;;;;;;;51.95;17.33;;;1.80;99.90;;;;;;5045984;28;20041;-82
2020/12/11 04:59:28;;;;;;;51.92;17.15;;;1.90;99.90;;;;;;5046730;28;20494;-82
2020/12/11 05:01:58;;;;;;;53.25;17.00;;;1.90;99.90;;;;;;5045743;28;20057;-82
2020/12/11 05:04:25;;;;;;;56.03;16.77;;;2.00;99.90;;;;;;5046622;28;20052;-82
2020/12/11 05:06:51;;;;;;;51.10;17.38;;;2.10;99.90;;;;;;5046376;28;20063;-82
2020/12/11 05:09:19;;;;;;;51.67;16.42;;;2.00;99.90;;;;;;5047055;28;20033;-82
2020/12/11 05:11:46;;;;;;;49.78;16.35;;;2.00;99.90;;;;;;5047449;28;20060;-82
2020/12/11 05:14:22;;;;;;;46.05;15.68;;;2.00;99.90;;;;;;5046497;28;20040;-82
2020/12/11 05:17:04;;;;;;;60.20;16.60;;;2.00;99.90;;;;;;5047653;28;20017;-82
2020/12/11 05:19:31;;;;;;;53.33;16.00;;;2.00;99.90;;;;;;5047047;28;20032;-82
2020/12/11 05:22:09;;;;;;;42.72;15.65;;;2.00;99.90;;;;;;5045853;28;20028;-81
2020/12/11 05:24:46;;;;;;;47.75;15.40;;;2.00;99.90;;;;;;5046430;28;20495;-81
2020/12/11 05:27:42;;;;;;;51.45;16.35;;;2.00;99.90;;;;;;5046263;28;20124;-82
2020/12/11 05:30:14;;;;;;;40.97;15.25;;;1.90;99.90;;;;;;5042857;28;20037;-76
2020/12/11 05:32:44;;;;;;;51.03;17.02;;;2.00;99.90;;;;;;5046051;28;20508;-82
2020/12/11 05:35:18;;;;;;;45.53;15.70;;;1.90;99.90;;;;;;5045166;28;20041;-82
2020/12/11 05:37:45;;;;;;;47.03;15.38;;;1.90;99.90;;;;;;5043645;28;20032;-80
2020/12/11 05:40:28;;;;;;;44.03;15.73;;;1.90;99.90;;;;;;5047061;28;20407;-85
2020/12/11 05:43:15;;;;;;;50.30;16.20;;;1.90;99.90;;;;;;5044200;28;20032;-82
2020/12/11 05:45:58;;;;;;;46.67;16.42;;;1.90;99.90;;;;;;5045187;28;20372;-87
2020/12/11 05:48:37;;;;;;;43.83;15.60;;;1.90;99.90;;;;;;5044927;28;20067;-83
2020/12/11 05:51:13;;;;;;;48.35;16.33;;;1.90;99.90;;;;;;5046980;28;20032;-84
2020/12/11 05:53:39;;;;;;;40.25;15.82;;;1.90;99.90;;;;;;5045591;28;20037;-84
2020/12/11 05:56:05;;;;;;;49.08;16.55;;;1.90;99.90;;;;;;5046522;28;20028;-83
2020/12/11 05:58:33;;;;;;;45.10;14.27;;;1.90;99.90;;;;;;5045925;28;20025;-80
2020/12/11 06:00:59;;;;;;;44.45;15.63;;;1.90;99.90;;;;;;5041815;28;20463;-82
2020/12/11 06:03:25;;;;;;;43.05;15.25;;;1.90;99.90;;;;;;5044840;28;20044;-80
2020/12/11 06:05:53;;;;;;;43.47;15.38;;;1.90;99.90;;;;;;5042352;28;20141;-84
2020/12/11 06:08:19;;;;;;;44.40;15.60;;;1.90;99.90;;;;;;5046233;28;20048;-79
2020/12/11 06:10:49;;;;;;;42.80;15.10;;;1.90;99.90;;;;;;5044315;28;20025;-79
2020/12/11 06:13:32;;;;;;;41.95;15.63;;;1.90;99.90;;;;;;5045031;28;20029;-79
2020/12/11 06:16:01;;;;;;;44.80;16.38;;;1.90;99.90;;;;;;5041117;28;20036;-79
2020/12/11 06:18:32;;;;;;;45.60;14.93;;;1.90;99.90;;;;;;5045867;28;20021;-77
2020/12/11 06:21:00;;;;;;;42.00;14.73;;;1.80;99.90;;;;;;5043583;28;20043;-78
2020/12/11 06:23:30;;;;;;;44.22;15.35;;;1.90;99.90;;;;;;5043712;28;20078;-80
2020/12/11 06:25:57;;;;;;;47.75;15.45;;;1.90;99.90;;;;;;5042652;28;20036;-78
2020/12/11 06:28:35;;;;;;;44.92;16.17;;;1.90;99.90;;;;;;5045482;28;20055;-79
2020/12/11 06:31:02;;;;;;;37.60;13.90;;;2.00;99.90;;;;;;5045484;28;20392;-80
2020/12/11 06:33:33;;;;;;;42.13;15.32;;;1.90;99.90;;;;;;5045783;28;20044;-79
2020/12/11 06:36:00;;;;;;;44.10;15.95;;;1.90;99.90;;;;;;5044372;28;20567;-78
2020/12/11 06:38:55;;;;;;;43.72;15.02;;;2.00;99.90;;;;;;5046360;28;20037;-79
2020/12/11 06:41:32;;;;;;;44.50;15.00;;;1.90;99.90;;;;;;5044725;28;20032;-79
2020/12/11 06:44:02;;;;;;;42.28;14.73;;;1.90;99.90;;;;;;5047220;28;20089;-78
2020/12/11 06:46:28;;;;;;;45.78;14.75;;;1.90;99.90;;;;;;5047658;28;20116;-79
2020/12/11 06:49:16;;;;;;;40.97;14.63;;;1.90;99.90;;;;;;5047389;28;20039;-79
2020/12/11 06:51:44;;;;;;;42.72;15.60;;;1.90;99.90;;;;;;5053428;28;20074;-79
2020/12/11 06:54:10;;;;;;;51.53;15.48;;;1.90;99.90;;;;;;5047221;28;20106;-78
2020/12/11 06:56:43;;;;;;;49.30;15.85;;;1.90;99.90;;;;;;5047489;28;20337;-78
2020/12/11 06:59:22;;;;;;;42.92;16.08;;;1.90;99.90;;;;;;5047021;28;20032;-79
2020/12/11 07:01:52;;;;;;;42.65;15.75;;;2.00;99.90;;;;;;5047839;28;20025;-79
2020/12/11 07:04:18;;;;;;;49.15;16.13;;;2.00;99.90;;;;;;5046642;28;20480;-79
2020/12/11 07:06:54;;;;;;;46.67;16.55;;;2.00;99.90;;;;;;5047262;28;20031;-79
2020/12/11 07:09:20;;;;;;;45.60;16.83;;;2.00;99.90;;;;;;5047156;28;20040;-79
2020/12/11 07:11:48;;;;;;;51.03;16.85;;;2.10;99.90;;;;;;5047344;28;20036;-79
2020/12/11 07:14:14;;;;;;;50.72;16.58;;;2.20;99.90;;;;;;5047004;28;20265;-79
2020/12/11 07:16:41;;;;;;;51.88;16.70;;;2.10;99.90;;;;;;5046937;28;20427;-79
2020/12/11 07:19:07;;;;;;;53.90;16.88;;;2.00;99.90;;;;;;5046869;28;20021;-79
2020/12/11 07:21:33;;;;;;;55.53;17.08;;;1.90;99.90;;;;;;5047669;28;20025;-79
2020/12/11 07:24:03;;;;;;;53.33;16.60;;;2.00;99.90;;;;;;5046439;28;20033;-77
2020/12/11 07:26:29;;;;;;;49.10;16.05;;;1.90;99.90;;;;;;5045763;28;20470;-76
2020/12/11 07:29:05;;;;;;;50.58;16.00;;;1.90;99.90;;;;;;5045199;28;20025;-76
2020/12/11 07:31:35;;;;;;;50.33;16.85;;;2.00;99.90;;;;;;5045693;28;20021;-76
2020/12/11 07:34:02;;;;;;;50.95;16.27;;;2.10;99.90;;;;;;5045136;28;20162;-77
2020/12/11 07:36:27;;;;;;;47.13;16.83;;;2.20;99.90;;;;;;5047339;28;20056;-77
2020/12/11 07:38:53;;;;;;;53.65;16.85;;;2.10;99.90;;;;;;5044703;28;20021;-75
2020/12/11 07:41:19;;;;;;;54.05;16.58;;;2.10;99.90;;;;;;5046572;28;20514;-77
2020/12/11 07:43:46;;;;;;;52.30;17.00;;;2.20;99.90;;;;;;5046756;28;20052;-76
2020/12/11 07:46:11;;;;;;;42.83;15.88;;;2.30;99.90;;;;;;5046650;28;20075;-77
2020/12/11 07:48:50;;;;;;;44.80;15.60;;;2.30;99.90;;;;;;5047073;28;20063;-76
2020/12/11 07:51:17;;;;;;;50.90;16.08;;;2.30;99.90;;;;;;5046047;28;20076;-76
2020/12/11 07:53:50;;;;;;;47.20;16.45;;;2.30;99.90;;;;;;5039480;28;20668;-77
2020/12/11 07:56:16;;;;;;;44.92;16.50;;;2.30;99.90;;;;;;5042293;28;20368;-78
2020/12/11 07:58:41;;;;;;;47.70;15.85;;;2.30;99.90;;;;;;5042101;28;20083;-78
2020/12/11 08:01:07;;;;;;;41.83;16.38;;;2.30;99.90;;;;;;5045309;28;20035;-76
2020/12/11 08:03:32;;;;;;;48.90;14.77;;;2.20;99.90;;;;;;5048001;28;20045;-80
2020/12/11 08:05:58;;;;;;;46.30;15.48;;;2.10;99.90;;;;;;5042221;28;20401;-81
2020/12/11 08:08:27;;;;;;;39.70;14.75;;;2.00;99.90;;;;;;5042788;28;20032;-84
2020/12/11 08:10:53;;;;;;;46.88;15.13;;;1.90;99.90;;;;;;5042691;28;20029;-84
2020/12/11 08:13:21;;;;;;;42.63;13.95;;;2.00;99.90;;;;;;5043848;28;20028;-82
2020/12/11 08:15:46;;;;;;;47.10;15.60;;;2.00;99.90;;;;;;5044152;28;20028;-81
2020/12/11 08:18:19;;;;;;;45.58;13.93;;;2.00;99.90;;;;;;5042094;28;20388;-82
2020/12/11 08:20:54;;;;;;;46.35;14.85;;;2.00;99.90;;;;;;5042407;28;20399;-82
2020/12/11 08:23:31;;;;;;;39.63;15.02;;;2.00;99.90;;;;;;5043666;28;20104;-82
2020/12/11 08:26:08;;;;;;;49.30;16.02;;;2.00;99.90;;;;;;5043192;28;20479;-81
2020/12/11 08:28:34;;;;;;;46.25;16.27;;;2.10;99.90;;;;;;5046916;28;20078;-81
2020/12/11 08:31:26;;;;;;;44.53;15.65;;;2.10;99.90;;;;;;5047115;28;20033;-81
2020/12/11 08:34:09;;;;;;;43.80;15.70;;;2.10;99.90;;;;;;5048122;28;20090;-81
2020/12/11 08:36:40;;;;;;;55.75;16.30;;;2.20;99.90;;;;;;5045808;28;20029;-81
2020/12/11 08:39:26;;;;;;;46.28;15.73;;;2.10;99.90;;;;;;5047483;28;20021;-82
2020/12/11 08:42:18;;;;;;;44.55;16.40;;;2.20;99.90;;;;;;5047261;28;20029;-82
2020/12/11 08:47:59;;;;;;;40.47;14.38;;;2.20;99.90;;;;;;5047448;28;20040;-81
2020/12/11 08:50:40;;;;;;;39.75;15.25;;;2.20;99.90;;;;;;5046590;28;20033;-81
2020/12/11 08:53:08;;;;;;;55.92;16.08;;;2.30;99.90;;;;;;5047563;28;20021;-81
2020/12/11 08:55:33;;;;;;;44.90;15.73;;;2.30;99.90;;;;;;5044711;28;20036;-81
2020/12/11 08:57:59;;;;;;;40.15;15.05;;;2.30;99.90;;;;;;5045991;28;20245;-80
2020/12/11 09:00:25;;;;;;;35.72;14.20;;;2.30;99.90;;;;;;5047492;28;20566;-81
2020/12/11 09:02:51;;;;;;;45.70;16.23;;;2.20;99.90;;;;;;5046098;28;20115;-80
2020/12/11 09:05:17;;;;;;;37.92;14.52;;;2.20;99.90;;;;;;5047955;28;20064;-81
2020/12/11 09:07:42;;;;;;;40.08;14.20;;;2.20;99.90;;;;;;5045715;28;20036;-81
2020/12/11 09:10:08;;;;;;;35.38;14.10;;;2.10;99.90;;;;;;5047494;28;20086;-81
2020/12/11 09:12:36;;;;;;;37.47;14.60;;;2.10;99.90;;;;;;5046107;28;20029;-80
2020/12/11 09:15:06;;;;;;;38.00;13.95;;;2.10;99.90;;;;;;5045537;28;20032;-81
2020/12/11 09:17:31;;;;;;;43.22;14.40;;;2.20;99.90;;;;;;5046998;28;20138;-80
2020/12/11 09:19:56;;;;;;;37.85;13.57;;;2.20;99.90;;;;;;5046840;28;20674;-81
2020/12/11 09:22:22;;;;;;;39.58;14.60;;;2.20;99.90;;;;;;5046420;28;20372;-81
2020/12/11 09:24:47;;;;;;;37.60;13.90;;;2.20;99.90;;;;;;5047074;28;20086;-81
2020/12/11 09:27:14;;;;;;;41.10;14.30;;;2.20;99.90;;;;;;5046322;28;20031;-80
2020/12/11 09:29:43;;;;;;;37.38;13.30;;;2.20;99.90;;;;;;5047212;28;20025;-80
2020/12/11 09:32:13;;;;;;;39.10;12.18;;;2.20;99.90;;;;;;5045427;28;20102;-80
2020/12/11 09:34:39;;;;;;;33.47;12.77;;;2.20;99.90;;;;;;5046979;28;20024;-81
2020/12/11 09:37:04;;;;;;;34.28;12.93;;;2.10;99.90;;;;;;5045333;28;20040;-80
2020/12/11 09:39:30;;;;;;;33.15;13.07;;;2.10;99.90;;;;;;5046706;28;20033;-80
2020/12/11 09:42:18;;;;;;;39.85;13.57;;;2.10;99.90;;;;;;5046559;28;20029;-81
2020/12/11 09:45:04;;;;;;;34.53;12.63;;;2.20;99.90;;;;;;5045516;28;20033;-80
2020/12/11 09:47:50;;;;;;;34.95;12.85;;;2.20;99.90;;;;;;5046078;28;20094;-80
2020/12/11 09:53:14;;;;;;;;;;;2.30;99.90;;;;;;5046987;28;20021;-80
2020/12/11 09:55:45;;;;;;;40.45;14.63;;;2.30;99.90;;;;;;5040622;28;19927;-80
2020/12/11 09:58:11;;;;;;;44.58;15.20;;;2.40;99.90;;;;;;5040248;28;20032;-79
2020/12/11 10:00:40;;;;;;;39.33;14.90;;;2.50;99.90;;;;;;5044788;28;20033;-80
2020/12/11 10:03:08;;;;;;;35.35;14.20;;;2.40;99.90;;;;;;5046362;28;20044;-80
2020/12/11 10:05:34;;;;;;;36.25;13.73;;;2.30;99.90;;;;;;5043352;28;20028;-80
2020/12/11 10:07:59;;;;;;;37.17;14.57;;;2.40;99.90;;;;;;5041968;28;20608;-80
2020/12/11 10:10:26;;;;;;;43.15;14.98;;;2.50;99.90;;;;;;5045195;28;20028;-80
2020/12/11 10:12:52;;;;;;;43.90;15.63;;;2.60;99.90;;;;;;5043309;28;20025;-79
2020/12/11 10:15:22;;;;;;;35.80;14.85;;;2.70;99.90;;;;;;5045587;28;20055;-80
2020/12/11 10:17:49;;;;;;;33.55;13.93;;;2.60;99.90;;;;;;5046339;28;20108;-80
2020/12/11 10:20:18;;;;;;;36.97;14.80;;;2.50;99.90;;;;;;5045845;28;20025;-80
2020/12/11 10:22:48;;;;;;;37.97;15.32;;;2.60;99.90;;;;;;5045876;28;20108;-82
2020/12/11 10:25:14;;;;;;;36.20;15.50;;;2.50;99.90;;;;;;5044977;28;20048;-83
2020/12/11 10:27:40;;;;;;;35.55;14.30;;;2.70;99.90;;;;;;5043046;28;20036;-79
2020/12/11 10:30:05;;;;;;;38.80;14.10;;;2.60;99.90;;;;;;5044811;28;20291;-80
2020/12/11 10:32:31;;;;;;;36.55;13.75;;;2.60;99.90;;;;;;5044980;28;20079;-79
2020/12/11 10:34:57;;;;;;;34.33;14.13;;;2.60;99.90;;;;;;5044113;28;20075;-80
2020/12/11 10:37:23;;;;;;;29.15;13.70;;;2.70;99.90;;;;;;5044798;28;20479;-80
2020/12/11 10:39:49;;;;;;;37.17;14.52;;;2.80;99.90;;;;;;5043114;28;20034;-80
2020/12/11 10:42:14;;;;;;;39.38;14.98;;;2.80;99.90;;;;;;5042872;28;20455;-80
2020/12/11 10:44:45;;;;;;;39.67;14.35;;;2.90;99.90;;;;;;5044453;28;20043;-80
2020/12/11 10:47:11;;;;;;;37.97;14.70;;;2.80;99.90;;;;;;5044434;28;20103;-80
2020/12/11 10:49:36;;;;;;;39.15;14.07;;;2.70;99.90;;;;;;5044053;28;20444;-81
2020/12/11 10:52:02;;;;;;;35.05;13.27;;;2.60;99.90;;;;;;5044032;28;20151;-80
2020/12/11 10:54:28;;;;;;;37.40;13.65;;;2.60;99.90;;;;;;5043829;28;20051;-80
2020/12/11 10:56:54;;;;;;;38.55;14.07;;;2.60;99.90;;;;;;5044812;28;20072;-81
2020/12/11 10:59:20;;;;;;;40.85;13.10;;;2.70;99.90;;;;;;5044160;28;20086;-81
2020/12/11 11:01:45;;;;;;;34.50;13.15;;;2.70;99.90;;;;;;5043805;28;20048;-80
2020/12/11 11:04:11;;;;;;;36.53;13.98;;;2.70;99.90;;;;;;5042993;28;20045;-79
2020/12/11 11:06:40;;;;;;;35.53;13.85;;;2.70;99.90;;;;;;5044470;28;20052;-80
2020/12/11 11:11:41;;;;;;;34.38;13.60;;;2.70;99.90;;;;;;5043993;28;20028;-84
2020/12/11 11:19:38;;;;;;;35.97;13.93;;;2.80;99.90;;;;;;5045228;28;20025;-78
2020/12/11 11:27:22;;;;;;;40.13;15.07;;;2.80;99.90;;;;;;5044358;28;20092;-82
2020/12/11 11:29:47;;;;;;;40.67;15.88;;;2.70;99.90;;;;;;5046092;28;20053;-82
2020/12/11 11:32:13;;;;;;;39.05;14.48;;;2.70;99.90;;;;;;5041989;28;20048;-85
2020/12/11 11:34:38;;;;;;;40.72;15.10;;;2.70;99.90;;;;;;5045321;28;20452;-82
2020/12/11 11:37:03;;;;;;;43.70;16.00;;;2.50;99.90;;;;;;5046941;28;20029;-90
2020/12/11 11:39:29;;;;;;;41.58;15.20;;;2.60;99.90;;;;;;5044077;28;20029;-86
2020/12/11 11:41:55;;;;;;;44.72;15.45;;;2.60;99.90;;;;;;5047186;28;20082;-84
2020/12/11 11:46:47;;;;;;;34.95;15.23;;;2.40;99.90;;;;;;5046910;28;20025;-90
2020/12/11 11:49:16;;;;;;;40.53;14.63;;;2.50;99.90;;;;;;5046938;28;20033;-88
2020/12/11 11:52:13;;;;;;;34.60;15.43;;;2.50;99.90;;;;;;5051966;28;20484;-83
2020/12/11 11:54:27;;;;;;;42.03;13.50;;;2.40;99.90;;;;;;5045405;28;20037;-85
2020/12/11 11:56:57;;;;;;;43.90;15.60;;;2.50;99.90;;;;;;5045645;28;20024;-77
2020/12/11 11:59:23;;;;;;;36.65;14.60;;;2.50;99.90;;;;;;5047116;28;20025;-77
2020/12/11 12:01:51;;;;;;;35.83;14.90;;;2.60;99.90;;;;;;5044939;28;20048;-88
2020/12/11 12:04:16;;;;;;;37.33;15.43;;;2.70;99.90;;;;;;5031198;22;20053;-89
2020/12/11 12:06:42;;;;;;;42.17;14.88;;;2.60;99.90;;;;;;5009886;28;20018;-88
2020/12/11 12:09:07;;;;;;;43.00;15.70;;;2.60;99.90;;;;;;5009531;28;20026;-88
2020/12/11 12:11:33;;;;;;;44.95;15.93;;;2.60;99.90;;;;;;5009708;28;20080;-89
2020/12/11 12:13:59;;;;;;;34.10;13.93;;;2.70;99.90;;;;;;5009404;28;20580;-88
2020/12/11 12:16:25;;;;;;;30.80;14.20;;;2.70;99.90;;;;;;5008643;28;20026;-88
2020/12/11 12:18:54;;;;;;;40.95;14.80;;;2.70;99.90;;;;;;5006805;28;20022;-89
2020/12/11 12:22:06;;;;;;;37.67;15.10;;;2.90;99.90;;;;;;5007963;28;20106;-86
2020/12/11 12:29:30;;;;;;;34.40;13.55;;;2.80;99.90;;;;;;5007421;28;20037;-85
2020/12/11 12:32:00;;;;;;;37.28;13.52;;;2.90;99.90;;;;;;5008092;28;20468;-76
2020/12/11 12:37:23;;;;;;;37.35;15.02;;;3.00;99.90;;;;;;5008981;28;20045;-79
2020/12/11 12:40:07;;;;;;;36.67;15.10;;;3.10;99.90;;;;;;5002415;28;20226;-81
2020/12/11 12:45:08;;;;;;;38.10;15.32;;;3.10;99.90;;;;;;5005515;28;20076;-78
2020/12/11 12:47:35;;;;;;;40.40;15.55;;;3.20;99.90;;;;;;5003565;28;20124;-81
2020/12/11 12:50:01;;;;;;;38.00;15.07;;;3.30;99.90;;;;;;5007113;28;20032;-85
2020/12/11 12:52:27;;;;;;;35.13;15.50;;;3.20;99.90;;;;;;5004052;28;20105;-85
2020/12/11 12:54:52;;;;;;;41.03;15.02;;;3.20;99.90;;;;;;5002460;28;20370;-84
2020/12/11 12:58:03;;;;;;;39.78;15.88;;;3.30;99.90;;;;;;5002389;28;20039;-78
2020/12/11 13:02:53;;;;;;;47.67;16.77;;;3.50;99.90;;;;;;5008940;28;20038;-78
2020/12/11 13:05:18;;;;;;;46.50;15.75;;;3.50;99.90;;;;;;5005162;28;20053;-77
2020/12/11 13:07:44;;;;;;;35.85;15.40;;;3.50;99.90;;;;;;5007650;28;20458;-78
2020/12/11 13:10:09;;;;;;;38.80;15.57;;;3.30;99.90;;;;;;5010163;28;20033;-78
2020/12/11 13:12:35;;;;;;;45.25;16.15;;;3.30;99.90;;;;;;5007841;28;20034;-78
2020/12/11 13:15:01;;;;;;;51.05;18.05;;;3.40;99.90;;;;;;5009259;28;20057;-78
2020/12/11 13:17:26;;;;;;;49.17;16.60;;;3.40;99.90;;;;;;5007559;28;20092;-78
2020/12/11 13:19:52;;;;;;;44.78;16.13;;;3.40;99.90;;;;;;5010136;28;20029;-77